sensor_id;sensor_type;location;lat;lon;timestamp;P1;durP1;ratioP1;P2;durP2;ratioP2
18042;SDS011;9146;48.074;11.968;2024-01-15T00:00:15;3.40;;;3.10;;
18042;SDS011;9146;48.074;11.968;2024-01-15T00:02:43;3.00;;;2.70;;
18042;SDS011;9146;48.074;11.968;2024-01-15T00:05:10;3.80;;;3.10;;
18042;SDS011;9146;48.074;11.968;2024-01-15T00:07:37;4.87;;;3.57;;
18042;SDS011;9146;48.074;11.968;2024-01-15T00:10:04;4.50;;;2.70;;
18042;SDS011;9146;48.074;11.968;2024-01-15T00:12:31;3.43;;;3.13;;
18042;SDS011;9146;48.074;11.968;2024-01-15T00:14:58;3.23;;;2.97;;
18042;SDS011;9146;48.074;11.968;2024-01-15T00:17:26;3.53;;;2.97;;
18042;SDS011;9146;48.074;11.968;2024-01-15T00:19:53;4.20;;;3.53;;
18042;SDS011;9146;48.074;11.968;2024-01-15T00:22:20;4.77;;;3.37;;
18042;SDS011;9146;48.074;11.968;2024-01-15T00:24:47;4.93;;;4.40;;
18042;SDS011;9146;48.074;11.968;2024-01-15T00:27:14;5.53;;;3.50;;
18042;SDS011;9146;48.074;11.968;2024-01-15T00:29:41;4.57;;;3.30;;
18042;SDS011;9146;48.074;11.968;2024-01-15T00:32:07;4.60;;;3.63;;
18042;SDS011;9146;48.074;11.968;2024-01-15T00:34:36;5.40;;;4.07;;
18042;SDS011;9146;48.074;11.968;2024-01-15T00:37:03;4.37;;;3.57;;
18042;SDS011;9146;48.074;11.968;2024-01-15T00:39:32;4.33;;;3.30;;
18042;SDS011;9146;48.074;11.968;2024-01-15T00:41:58;4.47;;;3.53;;
18042;SDS011;9146;48.074;11.968;2024-01-15T00:44:25;6.50;;;3.67;;
18042;SDS011;9146;48.074;11.968;2024-01-15T00:46:52;6.90;;;3.90;;
18042;SDS011;9146;48.074;11.968;2024-01-15T00:49:19;5.30;;;3.83;;
18042;SDS011;9146;48.074;11.968;2024-01-15T00:51:47;6.70;;;4.40;;
18042;SDS011;9146;48.074;11.968;2024-01-15T00:54:14;5.17;;;4.30;;
18042;SDS011;9146;48.074;11.968;2024-01-15T00:56:41;5.60;;;4.20;;
18042;SDS011;9146;48.074;11.968;2024-01-15T00:59:08;5.43;;;4.57;;
18042;SDS011;9146;48.074;11.968;2024-01-15T01:01:39;7.93;;;5.17;;
18042;SDS011;9146;48.074;11.968;2024-01-15T01:04:08;5.67;;;4.57;;
18042;SDS011;9146;48.074;11.968;2024-01-15T01:06:35;6.40;;;5.10;;
18042;SDS011;9146;48.074;11.968;2024-01-15T01:09:03;8.10;;;4.50;;
18042;SDS011;9146;48.074;11.968;2024-01-15T01:11:30;7.67;;;5.03;;
18042;SDS011;9146;48.074;11.968;2024-01-15T01:13:57;6.33;;;4.83;;
18042;SDS011;9146;48.074;11.968;2024-01-15T01:16:24;7.40;;;5.30;;
18042;SDS011;9146;48.074;11.968;2024-01-15T01:18:51;6.43;;;4.97;;
18042;SDS011;9146;48.074;11.968;2024-01-15T01:21:17;18.70;;;5.93;;
18042;SDS011;9146;48.074;11.968;2024-01-15T01:23:44;7.00;;;4.60;;
18042;SDS011;9146;48.074;11.968;2024-01-15T01:26:16;9.03;;;5.60;;
18042;SDS011;9146;48.074;11.968;2024-01-15T01:28:43;9.40;;;6.20;;
18042;SDS011;9146;48.074;11.968;2024-01-15T01:31:10;7.37;;;5.73;;
18042;SDS011;9146;48.074;11.968;2024-01-15T01:33:38;10.10;;;7.00;;
18042;SDS011;9146;48.074;11.968;2024-01-15T01:36:07;10.63;;;6.47;;
18042;SDS011;9146;48.074;11.968;2024-01-15T01:38:35;8.57;;;7.10;;
18042;SDS011;9146;48.074;11.968;2024-01-15T01:41:01;9.17;;;6.70;;
18042;SDS011;9146;48.074;11.968;2024-01-15T01:43:30;12.17;;;6.33;;
18042;SDS011;9146;48.074;11.968;2024-01-15T01:45:57;10.93;;;6.97;;
18042;SDS011;9146;48.074;11.968;2024-01-15T01:48:25;9.20;;;7.60;;
18042;SDS011;9146;48.074;11.968;2024-01-15T01:50:53;9.57;;;7.13;;
18042;SDS011;9146;48.074;11.968;2024-01-15T01:53:23;9.80;;;7.03;;
18042;SDS011;9146;48.074;11.968;2024-01-15T01:55:51;8.43;;;6.70;;
18042;SDS011;9146;48.074;11.968;2024-01-15T01:58:18;14.70;;;7.23;;
18042;SDS011;9146;48.074;11.968;2024-01-15T02:00:47;10.07;;;7.77;;
18042;SDS011;9146;48.074;11.968;2024-01-15T02:03:14;11.13;;;7.43;;
18042;SDS011;9146;48.074;11.968;2024-01-15T02:05:41;10.83;;;6.80;;
18042;SDS011;9146;48.074;11.968;2024-01-15T02:08:10;7.93;;;6.13;;
18042;SDS011;9146;48.074;11.968;2024-01-15T02:10:37;8.97;;;6.40;;
18042;SDS011;9146;48.074;11.968;2024-01-15T02:13:04;7.37;;;5.67;;
18042;SDS011;9146;48.074;11.968;2024-01-15T02:15:31;10.37;;;7.03;;
18042;SDS011;9146;48.074;11.968;2024-01-15T02:18:00;11.77;;;6.73;;
18042;SDS011;9146;48.074;11.968;2024-01-15T02:20:28;9.60;;;6.70;;
18042;SDS011;9146;48.074;11.968;2024-01-15T02:23:03;7.70;;;6.33;;
18042;SDS011;9146;48.074;11.968;2024-01-15T02:25:33;10.03;;;5.90;;
18042;SDS011;9146;48.074;11.968;2024-01-15T02:28:00;11.10;;;5.97;;
18042;SDS011;9146;48.074;11.968;2024-01-15T02:30:29;5.73;;;5.13;;
18042;SDS011;9146;48.074;11.968;2024-01-15T02:32:57;8.17;;;5.73;;
18042;SDS011;9146;48.074;11.968;2024-01-15T02:35:24;7.77;;;5.53;;
18042;SDS011;9146;48.074;11.968;2024-01-15T02:37:51;11.27;;;5.80;;
18042;SDS011;9146;48.074;11.968;2024-01-15T02:40:19;6.60;;;5.10;;
18042;SDS011;9146;48.074;11.968;2024-01-15T02:42:46;9.63;;;6.03;;
18042;SDS011;9146;48.074;11.968;2024-01-15T02:45:13;9.57;;;5.90;;
18042;SDS011;9146;48.074;11.968;2024-01-15T02:47:40;10.63;;;6.17;;
18042;SDS011;9146;48.074;11.968;2024-01-15T02:50:07;11.33;;;6.53;;
18042;SDS011;9146;48.074;11.968;2024-01-15T02:52:34;6.97;;;5.50;;
18042;SDS011;9146;48.074;11.968;2024-01-15T02:55:00;13.50;;;6.67;;
18042;SDS011;9146;48.074;11.968;2024-01-15T02:57:29;11.73;;;6.70;;
18042;SDS011;9146;48.074;11.968;2024-01-15T02:59:56;10.17;;;6.20;;
18042;SDS011;9146;48.074;11.968;2024-01-15T03:02:25;8.43;;;5.00;;
18042;SDS011;9146;48.074;11.968;2024-01-15T03:04:51;7.27;;;5.13;;
18042;SDS011;9146;48.074;11.968;2024-01-15T03:07:18;11.40;;;6.37;;
18042;SDS011;9146;48.074;11.968;2024-01-15T03:09:45;7.07;;;5.40;;
18042;SDS011;9146;48.074;11.968;2024-01-15T03:12:12;7.87;;;5.40;;
18042;SDS011;9146;48.074;11.968;2024-01-15T03:14:41;8.20;;;4.93;;
18042;SDS011;9146;48.074;11.968;2024-01-15T03:17:07;12.60;;;6.47;;
18042;SDS011;9146;48.074;11.968;2024-01-15T03:19:36;10.23;;;6.40;;
18042;SDS011;9146;48.074;11.968;2024-01-15T03:22:03;9.17;;;6.00;;
18042;SDS011;9146;48.074;11.968;2024-01-15T03:24:31;9.97;;;5.50;;
18042;SDS011;9146;48.074;11.968;2024-01-15T03:26:58;7.50;;;5.27;;
18042;SDS011;9146;48.074;11.968;2024-01-15T03:29:25;10.70;;;6.47;;
18042;SDS011;9146;48.074;11.968;2024-01-15T03:31:54;10.30;;;4.83;;
18042;SDS011;9146;48.074;11.968;2024-01-15T03:34:20;6.50;;;5.13;;
18042;SDS011;9146;48.074;11.968;2024-01-15T03:36:47;9.17;;;5.13;;
18042;SDS011;9146;48.074;11.968;2024-01-15T03:39:14;6.77;;;4.93;;
18042;SDS011;9146;48.074;11.968;2024-01-15T03:41:41;9.17;;;5.53;;
18042;SDS011;9146;48.074;11.968;2024-01-15T03:44:08;6.37;;;4.50;;
18042;SDS011;9146;48.074;11.968;2024-01-15T03:46:35;7.53;;;5.10;;
18042;SDS011;9146;48.074;11.968;2024-01-15T03:49:03;6.82;;;5.40;;
18042;SDS011;9146;48.074;11.968;2024-01-15T03:51:30;6.67;;;5.60;;
18042;SDS011;9146;48.074;11.968;2024-01-15T03:53:58;5.37;;;4.20;;
18042;SDS011;9146;48.074;11.968;2024-01-15T03:56:25;7.33;;;4.90;;
18042;SDS011;9146;48.074;11.968;2024-01-15T03:58:52;5.00;;;4.20;;
18042;SDS011;9146;48.074;11.968;2024-01-15T04:01:19;6.57;;;4.73;;
18042;SDS011;9146;48.074;11.968;2024-01-15T04:03:46;6.60;;;4.47;;
18042;SDS011;9146;48.074;11.968;2024-01-15T04:06:14;8.50;;;5.10;;
18042;SDS011;9146;48.074;11.968;2024-01-15T04:08:41;5.57;;;3.70;;
18042;SDS011;9146;48.074;11.968;2024-01-15T04:11:08;7.23;;;5.03;;
18042;SDS011;9146;48.074;11.968;2024-01-15T04:13:35;8.47;;;4.27;;
18042;SDS011;9146;48.074;11.968;2024-01-15T04:16:02;8.33;;;4.93;;
18042;SDS011;9146;48.074;11.968;2024-01-15T04:18:29;8.07;;;4.30;;
18042;SDS011;9146;48.074;11.968;2024-01-15T04:20:56;4.87;;;4.30;;
18042;SDS011;9146;48.074;11.968;2024-01-15T04:23:25;6.23;;;4.83;;
18042;SDS011;9146;48.074;11.968;2024-01-15T04:25:51;8.10;;;4.17;;
18042;SDS011;9146;48.074;11.968;2024-01-15T04:28:18;6.10;;;4.20;;
18042;SDS011;9146;48.074;11.968;2024-01-15T04:30:45;6.67;;;4.63;;
18042;SDS011;9146;48.074;11.968;2024-01-15T04:33:12;6.10;;;4.33;;
18042;SDS011;9146;48.074;11.968;2024-01-15T04:35:39;6.60;;;4.87;;
18042;SDS011;9146;48.074;11.968;2024-01-15T04:38:06;6.13;;;4.50;;
18042;SDS011;9146;48.074;11.968;2024-01-15T04:40:34;8.53;;;5.40;;
18042;SDS011;9146;48.074;11.968;2024-01-15T04:43:01;7.37;;;5.13;;
18042;SDS011;9146;48.074;11.968;2024-01-15T04:45:28;4.67;;;4.17;;
18042;SDS011;9146;48.074;11.968;2024-01-15T04:47:55;9.23;;;4.77;;
18042;SDS011;9146;48.074;11.968;2024-01-15T04:50:23;8.37;;;4.80;;
18042;SDS011;9146;48.074;11.968;2024-01-15T04:52:49;6.80;;;3.90;;
18042;SDS011;9146;48.074;11.968;2024-01-15T04:55:16;5.77;;;4.63;;
18042;SDS011;9146;48.074;11.968;2024-01-15T04:57:45;7.33;;;4.70;;
18042;SDS011;9146;48.074;11.968;2024-01-15T05:00:12;6.53;;;4.30;;
18042;SDS011;9146;48.074;11.968;2024-01-15T05:02:39;7.37;;;4.70;;
18042;SDS011;9146;48.074;11.968;2024-01-15T05:05:06;8.37;;;4.83;;
18042;SDS011;9146;48.074;11.968;2024-01-15T05:07:33;6.93;;;4.63;;
18042;SDS011;9146;48.074;11.968;2024-01-15T05:10:00;6.23;;;4.53;;
18042;SDS011;9146;48.074;11.968;2024-01-15T05:12:27;7.57;;;4.90;;
18042;SDS011;9146;48.074;11.968;2024-01-15T05:14:55;7.50;;;4.77;;
18042;SDS011;9146;48.074;11.968;2024-01-15T05:17:22;5.70;;;5.00;;
18042;SDS011;9146;48.074;11.968;2024-01-15T05:19:50;5.53;;;4.50;;
18042;SDS011;9146;48.074;11.968;2024-01-15T05:22:17;8.67;;;4.17;;
18042;SDS011;9146;48.074;11.968;2024-01-15T05:24:44;3.80;;;3.50;;
18042;SDS011;9146;48.074;11.968;2024-01-15T05:27:11;6.67;;;4.43;;
18042;SDS011;9146;48.074;11.968;2024-01-15T05:29:38;5.37;;;4.20;;
18042;SDS011;9146;48.074;11.968;2024-01-15T05:32:06;6.17;;;4.77;;
18042;SDS011;9146;48.074;11.968;2024-01-15T05:34:33;5.57;;;4.00;;
18042;SDS011;9146;48.074;11.968;2024-01-15T05:37:00;6.93;;;4.90;;
18042;SDS011;9146;48.074;11.968;2024-01-15T05:39:27;8.83;;;5.00;;
18042;SDS011;9146;48.074;11.968;2024-01-15T05:41:54;6.77;;;4.70;;
18042;SDS011;9146;48.074;11.968;2024-01-15T05:44:20;5.20;;;4.10;;
18042;SDS011;9146;48.074;11.968;2024-01-15T05:46:47;5.27;;;4.40;;
18042;SDS011;9146;48.074;11.968;2024-01-15T05:49:16;5.60;;;3.90;;
18042;SDS011;9146;48.074;11.968;2024-01-15T05:51:42;5.67;;;4.00;;
18042;SDS011;9146;48.074;11.968;2024-01-15T05:54:09;8.07;;;4.10;;
18042;SDS011;9146;48.074;11.968;2024-01-15T05:56:36;5.27;;;3.73;;
18042;SDS011;9146;48.074;11.968;2024-01-15T05:59:03;5.47;;;3.97;;
18042;SDS011;9146;48.074;11.968;2024-01-15T06:01:30;5.37;;;4.03;;
18042;SDS011;9146;48.074;11.968;2024-01-15T06:03:57;6.33;;;4.10;;
18042;SDS011;9146;48.074;11.968;2024-01-15T06:06:25;5.57;;;3.57;;
18042;SDS011;9146;48.074;11.968;2024-01-15T06:08:52;6.27;;;4.23;;
18042;SDS011;9146;48.074;11.968;2024-01-15T06:11:19;6.67;;;4.27;;
18042;SDS011;9146;48.074;11.968;2024-01-15T06:13:46;5.20;;;3.33;;
18042;SDS011;9146;48.074;11.968;2024-01-15T06:16:13;4.50;;;3.60;;
18042;SDS011;9146;48.074;11.968;2024-01-15T06:18:41;5.63;;;4.47;;
18042;SDS011;9146;48.074;11.968;2024-01-15T06:21:08;7.17;;;4.20;;
18042;SDS011;9146;48.074;11.968;2024-01-15T06:23:39;5.33;;;4.07;;
18042;SDS011;9146;48.074;11.968;2024-01-15T06:26:06;4.70;;;3.50;;
18042;SDS011;9146;48.074;11.968;2024-01-15T06:28:33;5.30;;;3.97;;
18042;SDS011;9146;48.074;11.968;2024-01-15T06:31:00;4.60;;;3.40;;
18042;SDS011;9146;48.074;11.968;2024-01-15T06:33:27;5.97;;;3.70;;
18042;SDS011;9146;48.074;11.968;2024-01-15T06:35:54;4.83;;;4.10;;
18042;SDS011;9146;48.074;11.968;2024-01-15T06:38:21;6.00;;;3.97;;
18042;SDS011;9146;48.074;11.968;2024-01-15T06:40:49;5.17;;;4.10;;
18042;SDS011;9146;48.074;11.968;2024-01-15T06:43:17;4.50;;;3.30;;
18042;SDS011;9146;48.074;11.968;2024-01-15T06:45:44;5.33;;;3.80;;
18042;SDS011;9146;48.074;11.968;2024-01-15T06:48:11;4.40;;;3.53;;
18042;SDS011;9146;48.074;11.968;2024-01-15T06:50:39;5.50;;;3.63;;
18042;SDS011;9146;48.074;11.968;2024-01-15T06:53:06;7.60;;;3.93;;
18042;SDS011;9146;48.074;11.968;2024-01-15T06:55:33;4.77;;;4.00;;
18042;SDS011;9146;48.074;11.968;2024-01-15T06:58:01;5.93;;;3.90;;
18042;SDS011;9146;48.074;11.968;2024-01-15T07:00:28;6.47;;;4.00;;
18042;SDS011;9146;48.074;11.968;2024-01-15T07:02:55;5.63;;;3.93;;
18042;SDS011;9146;48.074;11.968;2024-01-15T07:05:23;12.67;;;4.10;;
18042;SDS011;9146;48.074;11.968;2024-01-15T07:07:49;4.77;;;3.53;;
18042;SDS011;9146;48.074;11.968;2024-01-15T07:10:16;5.73;;;3.77;;
18042;SDS011;9146;48.074;11.968;2024-01-15T07:12:44;5.43;;;3.13;;
18042;SDS011;9146;48.074;11.968;2024-01-15T07:15:12;8.33;;;4.67;;
18042;SDS011;9146;48.074;11.968;2024-01-15T07:17:40;6.30;;;4.70;;
18042;SDS011;9146;48.074;11.968;2024-01-15T07:20:08;8.63;;;4.43;;
18042;SDS011;9146;48.074;11.968;2024-01-15T07:22:35;5.73;;;3.17;;
18042;SDS011;9146;48.074;11.968;2024-01-15T07:25:02;6.60;;;3.70;;
18042;SDS011;9146;48.074;11.968;2024-01-15T07:27:31;5.97;;;4.33;;
18042;SDS011;9146;48.074;11.968;2024-01-15T07:29:59;4.87;;;3.60;;
18042;SDS011;9146;48.074;11.968;2024-01-15T07:32:27;5.73;;;4.87;;
18042;SDS011;9146;48.074;11.968;2024-01-15T07:34:54;4.37;;;3.33;;
18042;SDS011;9146;48.074;11.968;2024-01-15T07:37:21;5.23;;;3.60;;
18042;SDS011;9146;48.074;11.968;2024-01-15T07:39:48;5.27;;;3.70;;
18042;SDS011;9146;48.074;11.968;2024-01-15T07:42:15;7.90;;;4.43;;
18042;SDS011;9146;48.074;11.968;2024-01-15T07:44:42;5.40;;;4.20;;
18042;SDS011;9146;48.074;11.968;2024-01-15T07:47:10;8.20;;;4.27;;
18042;SDS011;9146;48.074;11.968;2024-01-15T07:49:38;4.80;;;3.73;;
18042;SDS011;9146;48.074;11.968;2024-01-15T07:52:05;5.60;;;4.27;;
18042;SDS011;9146;48.074;11.968;2024-01-15T07:54:32;4.33;;;3.80;;
18042;SDS011;9146;48.074;11.968;2024-01-15T07:56:59;4.33;;;3.43;;
18042;SDS011;9146;48.074;11.968;2024-01-15T07:59:28;5.63;;;3.93;;
18042;SDS011;9146;48.074;11.968;2024-01-15T08:01:55;7.03;;;3.80;;
18042;SDS011;9146;48.074;11.968;2024-01-15T08:04:22;7.30;;;4.67;;
18042;SDS011;9146;48.074;11.968;2024-01-15T08:06:50;4.63;;;3.50;;
18042;SDS011;9146;48.074;11.968;2024-01-15T08:09:17;6.20;;;4.37;;
18042;SDS011;9146;48.074;11.968;2024-01-15T08:11:44;6.55;;;4.38;;
18042;SDS011;9146;48.074;11.968;2024-01-15T08:14:11;5.33;;;4.13;;
18042;SDS011;9146;48.074;11.968;2024-01-15T08:16:38;6.50;;;4.43;;
18042;SDS011;9146;48.074;11.968;2024-01-15T08:19:05;6.37;;;4.27;;
18042;SDS011;9146;48.074;11.968;2024-01-15T08:21:33;6.37;;;4.60;;
18042;SDS011;9146;48.074;11.968;2024-01-15T08:24:02;9.20;;;5.30;;
18042;SDS011;9146;48.074;11.968;2024-01-15T08:26:29;5.77;;;5.23;;
18042;SDS011;9146;48.074;11.968;2024-01-15T08:28:57;6.33;;;3.80;;
18042;SDS011;9146;48.074;11.968;2024-01-15T08:31:25;5.10;;;4.10;;
18042;SDS011;9146;48.074;11.968;2024-01-15T08:33:52;4.40;;;3.60;;
18042;SDS011;9146;48.074;11.968;2024-01-15T08:36:20;6.77;;;3.93;;
18042;SDS011;9146;48.074;11.968;2024-01-15T08:38:48;5.50;;;4.33;;
18042;SDS011;9146;48.074;11.968;2024-01-15T08:41:16;5.37;;;4.00;;
18042;SDS011;9146;48.074;11.968;2024-01-15T08:43:43;7.27;;;5.00;;
18042;SDS011;9146;48.074;11.968;2024-01-15T08:46:10;6.37;;;3.90;;
18042;SDS011;9146;48.074;11.968;2024-01-15T08:48:37;6.27;;;3.67;;
18042;SDS011;9146;48.074;11.968;2024-01-15T08:51:04;6.23;;;4.70;;
18042;SDS011;9146;48.074;11.968;2024-01-15T08:53:33;7.57;;;4.20;;
18042;SDS011;9146;48.074;11.968;2024-01-15T08:56:00;5.90;;;4.03;;
18042;SDS011;9146;48.074;11.968;2024-01-15T08:58:28;5.73;;;4.23;;
18042;SDS011;9146;48.074;11.968;2024-01-15T09:00:56;5.13;;;4.00;;
18042;SDS011;9146;48.074;11.968;2024-01-15T09:03:22;6.40;;;4.50;;
18042;SDS011;9146;48.074;11.968;2024-01-15T09:05:50;7.30;;;4.50;;
18042;SDS011;9146;48.074;11.968;2024-01-15T09:08:17;5.10;;;3.30;;
18042;SDS011;9146;48.074;11.968;2024-01-15T09:10:44;4.60;;;4.10;;
18042;SDS011;9146;48.074;11.968;2024-01-15T09:13:12;6.73;;;4.17;;
18042;SDS011;9146;48.074;11.968;2024-01-15T09:15:40;6.30;;;4.10;;
18042;SDS011;9146;48.074;11.968;2024-01-15T09:18:08;8.27;;;4.60;;
18042;SDS011;9146;48.074;11.968;2024-01-15T09:20:35;5.87;;;3.63;;
18042;SDS011;9146;48.074;11.968;2024-01-15T09:23:03;6.93;;;4.50;;
18042;SDS011;9146;48.074;11.968;2024-01-15T09:25:30;6.00;;;4.40;;
18042;SDS011;9146;48.074;11.968;2024-01-15T09:27:57;4.77;;;3.83;;
18042;SDS011;9146;48.074;11.968;2024-01-15T09:30:24;6.00;;;4.23;;
18042;SDS011;9146;48.074;11.968;2024-01-15T09:32:52;6.40;;;4.23;;
18042;SDS011;9146;48.074;11.968;2024-01-15T09:35:19;7.63;;;4.83;;
18042;SDS011;9146;48.074;11.968;2024-01-15T09:37:46;7.43;;;5.33;;
18042;SDS011;9146;48.074;11.968;2024-01-15T09:40:13;6.10;;;4.60;;
18042;SDS011;9146;48.074;11.968;2024-01-15T09:42:41;5.67;;;4.50;;
18042;SDS011;9146;48.074;11.968;2024-01-15T09:45:07;10.13;;;4.27;;
18042;SDS011;9146;48.074;11.968;2024-01-15T09:47:35;7.13;;;4.73;;
18042;SDS011;9146;48.074;11.968;2024-01-15T09:50:05;6.23;;;4.33;;
18042;SDS011;9146;48.074;11.968;2024-01-15T09:52:32;9.77;;;5.13;;
18042;SDS011;9146;48.074;11.968;2024-01-15T09:55:01;6.70;;;4.27;;
18042;SDS011;9146;48.074;11.968;2024-01-15T09:57:30;7.03;;;4.70;;
18042;SDS011;9146;48.074;11.968;2024-01-15T09:59:57;5.23;;;4.73;;
18042;SDS011;9146;48.074;11.968;2024-01-15T10:02:29;5.83;;;4.33;;
18042;SDS011;9146;48.074;11.968;2024-01-15T10:04:56;6.40;;;4.23;;
18042;SDS011;9146;48.074;11.968;2024-01-15T10:07:25;7.33;;;4.27;;
18042;SDS011;9146;48.074;11.968;2024-01-15T10:09:53;5.67;;;4.23;;
18042;SDS011;9146;48.074;11.968;2024-01-15T10:12:20;8.23;;;4.50;;
18042;SDS011;9146;48.074;11.968;2024-01-15T10:14:48;5.17;;;4.10;;
18042;SDS011;9146;48.074;11.968;2024-01-15T10:17:16;6.60;;;4.33;;
18042;SDS011;9146;48.074;11.968;2024-01-15T10:19:44;5.80;;;4.63;;
18042;SDS011;9146;48.074;11.968;2024-01-15T10:22:12;4.80;;;3.73;;
18042;SDS011;9146;48.074;11.968;2024-01-15T10:24:41;4.33;;;3.17;;
18042;SDS011;9146;48.074;11.968;2024-01-15T10:27:09;8.10;;;3.37;;
18042;SDS011;9146;48.074;11.968;2024-01-15T10:29:36;4.70;;;3.37;;
18042;SDS011;9146;48.074;11.968;2024-01-15T10:32:06;6.63;;;3.90;;
18042;SDS011;9146;48.074;11.968;2024-01-15T10:34:37;5.43;;;3.77;;
18042;SDS011;9146;48.074;11.968;2024-01-15T10:37:06;6.90;;;4.07;;
18042;SDS011;9146;48.074;11.968;2024-01-15T10:39:34;6.53;;;3.40;;
18042;SDS011;9146;48.074;11.968;2024-01-15T10:42:03;6.63;;;3.33;;
18042;SDS011;9146;48.074;11.968;2024-01-15T10:44:31;5.10;;;3.50;;
18042;SDS011;9146;48.074;11.968;2024-01-15T10:46:59;5.10;;;3.73;;
18042;SDS011;9146;48.074;11.968;2024-01-15T10:49:27;5.17;;;4.10;;
18042;SDS011;9146;48.074;11.968;2024-01-15T10:51:55;4.03;;;3.50;;
18042;SDS011;9146;48.074;11.968;2024-01-15T10:54:23;6.20;;;2.97;;
18042;SDS011;9146;48.074;11.968;2024-01-15T10:56:50;5.33;;;4.00;;
18042;SDS011;9146;48.074;11.968;2024-01-15T10:59:20;4.57;;;3.00;;
18042;SDS011;9146;48.074;11.968;2024-01-15T11:01:48;4.90;;;3.37;;
18042;SDS011;9146;48.074;11.968;2024-01-15T11:04:18;5.40;;;3.63;;
18042;SDS011;9146;48.074;11.968;2024-01-15T11:06:47;4.97;;;3.50;;
18042;SDS011;9146;48.074;11.968;2024-01-15T11:09:17;6.20;;;3.67;;
18042;SDS011;9146;48.074;11.968;2024-01-15T11:11:44;5.10;;;2.80;;
18042;SDS011;9146;48.074;11.968;2024-01-15T11:17:04;4.20;;;2.17;;
18042;SDS011;9146;48.074;11.968;2024-01-15T11:19:35;24.47;;;3.33;;
18042;SDS011;9146;48.074;11.968;2024-01-15T11:22:06;3.30;;;2.60;;
18042;SDS011;9146;48.074;11.968;2024-01-15T11:24:35;4.70;;;2.70;;
18042;SDS011;9146;48.074;11.968;2024-01-15T11:27:04;3.00;;;2.63;;
18042;SDS011;9146;48.074;11.968;2024-01-15T11:29:32;3.43;;;3.13;;
18042;SDS011;9146;48.074;11.968;2024-01-15T11:32:02;3.83;;;3.37;;
18042;SDS011;9146;48.074;11.968;2024-01-15T11:34:52;4.17;;;3.47;;
18042;SDS011;9146;48.074;11.968;2024-01-15T11:37:22;5.93;;;4.00;;
18042;SDS011;9146;48.074;11.968;2024-01-15T11:39:51;4.43;;;3.13;;
18042;SDS011;9146;48.074;11.968;2024-01-15T11:42:20;4.00;;;3.17;;
18042;SDS011;9146;48.074;11.968;2024-01-15T11:44:48;2.83;;;2.30;;
18042;SDS011;9146;48.074;11.968;2024-01-15T11:47:40;4.47;;;3.63;;
18042;SDS011;9146;48.074;11.968;2024-01-15T11:50:30;3.00;;;2.33;;
18042;SDS011;9146;48.074;11.968;2024-01-15T11:53:00;2.80;;;2.60;;
18042;SDS011;9146;48.074;11.968;2024-01-15T11:55:30;4.27;;;2.30;;
18042;SDS011;9146;48.074;11.968;2024-01-15T11:58:01;2.22;;;2.00;;
18042;SDS011;9146;48.074;11.968;2024-01-15T12:00:28;2.40;;;2.17;;
18042;SDS011;9146;48.074;11.968;2024-01-15T12:02:58;2.60;;;2.20;;
18042;SDS011;9146;48.074;11.968;2024-01-15T12:05:27;2.53;;;2.00;;
18042;SDS011;9146;48.074;11.968;2024-01-15T12:07:54;3.20;;;2.10;;
18042;SDS011;9146;48.074;11.968;2024-01-15T12:10:21;2.80;;;2.40;;
18042;SDS011;9146;48.074;11.968;2024-01-15T12:12:53;2.40;;;2.20;;
18042;SDS011;9146;48.074;11.968;2024-01-15T12:15:24;2.30;;;2.10;;
18042;SDS011;9146;48.074;11.968;2024-01-15T12:17:51;6.97;;;2.20;;
18042;SDS011;9146;48.074;11.968;2024-01-15T12:20:19;2.57;;;2.37;;
18042;SDS011;9146;48.074;11.968;2024-01-15T12:22:47;3.43;;;2.33;;
18042;SDS011;9146;48.074;11.968;2024-01-15T12:25:14;3.07;;;2.30;;
18042;SDS011;9146;48.074;11.968;2024-01-15T12:27:41;2.33;;;2.10;;
18042;SDS011;9146;48.074;11.968;2024-01-15T12:30:10;2.00;;;1.83;;
18042;SDS011;9146;48.074;11.968;2024-01-15T12:32:38;3.03;;;1.73;;
18042;SDS011;9146;48.074;11.968;2024-01-15T12:35:07;3.30;;;3.00;;
18042;SDS011;9146;48.074;11.968;2024-01-15T12:37:36;3.20;;;2.57;;
18042;SDS011;9146;48.074;11.968;2024-01-15T12:40:04;4.93;;;2.60;;
18042;SDS011;9146;48.074;11.968;2024-01-15T12:42:32;2.40;;;2.20;;
18042;SDS011;9146;48.074;11.968;2024-01-15T12:44:59;4.70;;;3.03;;
18042;SDS011;9146;48.074;11.968;2024-01-15T12:47:27;3.77;;;2.77;;
18042;SDS011;9146;48.074;11.968;2024-01-15T12:49:54;6.23;;;1.93;;
18042;SDS011;9146;48.074;11.968;2024-01-15T12:52:21;2.23;;;2.13;;
18042;SDS011;9146;48.074;11.968;2024-01-15T12:54:51;3.50;;;2.20;;
18042;SDS011;9146;48.074;11.968;2024-01-15T12:57:18;4.07;;;2.57;;
18042;SDS011;9146;48.074;11.968;2024-01-15T12:59:45;3.47;;;3.17;;
18042;SDS011;9146;48.074;11.968;2024-01-15T13:02:12;2.80;;;2.40;;
18042;SDS011;9146;48.074;11.968;2024-01-15T13:04:39;5.33;;;3.00;;
18042;SDS011;9146;48.074;11.968;2024-01-15T13:07:06;4.63;;;3.50;;
18042;SDS011;9146;48.074;11.968;2024-01-15T13:09:33;2.37;;;2.17;;
18042;SDS011;9146;48.074;11.968;2024-01-15T13:12:02;2.87;;;2.67;;
18042;SDS011;9146;48.074;11.968;2024-01-15T13:14:30;2.50;;;2.27;;
18042;SDS011;9146;48.074;11.968;2024-01-15T13:16:58;3.70;;;3.30;;
18042;SDS011;9146;48.074;11.968;2024-01-15T13:19:25;2.23;;;2.03;;
18042;SDS011;9146;48.074;11.968;2024-01-15T13:21:52;5.93;;;2.80;;
18042;SDS011;9146;48.074;11.968;2024-01-15T13:24:20;3.47;;;2.60;;
18042;SDS011;9146;48.074;11.968;2024-01-15T13:26:47;4.40;;;2.73;;
18042;SDS011;9146;48.074;11.968;2024-01-15T13:29:16;2.87;;;2.57;;
18042;SDS011;9146;48.074;11.968;2024-01-15T13:31:43;2.23;;;1.83;;
18042;SDS011;9146;48.074;11.968;2024-01-15T13:34:11;2.80;;;2.07;;
18042;SDS011;9146;48.074;11.968;2024-01-15T13:36:39;3.93;;;3.00;;
18042;SDS011;9146;48.074;11.968;2024-01-15T13:39:06;6.00;;;2.90;;
18042;SDS011;9146;48.074;11.968;2024-01-15T13:41:34;3.00;;;2.70;;
18042;SDS011;9146;48.074;11.968;2024-01-15T13:44:01;2.80;;;2.60;;
18042;SDS011;9146;48.074;11.968;2024-01-15T13:46:30;5.23;;;2.90;;
18042;SDS011;9146;48.074;11.968;2024-01-15T13:48:58;2.80;;;2.30;;
18042;SDS011;9146;48.074;11.968;2024-01-15T13:51:27;5.60;;;3.17;;
18042;SDS011;9146;48.074;11.968;2024-01-15T13:53:55;3.33;;;2.70;;
18042;SDS011;9146;48.074;11.968;2024-01-15T13:56:21;3.53;;;3.00;;
18042;SDS011;9146;48.074;11.968;2024-01-15T13:58:48;3.77;;;3.20;;
18042;SDS011;9146;48.074;11.968;2024-01-15T14:01:17;5.50;;;3.03;;
18042;SDS011;9146;48.074;11.968;2024-01-15T14:03:45;3.40;;;3.07;;
18042;SDS011;9146;48.074;11.968;2024-01-15T14:06:12;4.00;;;3.07;;
18042;SDS011;9146;48.074;11.968;2024-01-15T14:08:39;5.47;;;2.80;;
18042;SDS011;9146;48.074;11.968;2024-01-15T14:11:06;3.00;;;2.77;;
18042;SDS011;9146;48.074;11.968;2024-01-15T14:13:33;3.67;;;2.60;;
18042;SDS011;9146;48.074;11.968;2024-01-15T14:16:00;3.67;;;2.60;;
18042;SDS011;9146;48.074;11.968;2024-01-15T14:18:27;3.13;;;2.37;;
18042;SDS011;9146;48.074;11.968;2024-01-15T14:20:56;3.50;;;3.00;;
18042;SDS011;9146;48.074;11.968;2024-01-15T14:23:23;2.97;;;2.77;;
18042;SDS011;9146;48.074;11.968;2024-01-15T14:25:50;3.20;;;2.30;;
18042;SDS011;9146;48.074;11.968;2024-01-15T14:28:16;5.00;;;3.60;;
18042;SDS011;9146;48.074;11.968;2024-01-15T14:30:43;6.23;;;3.70;;
18042;SDS011;9146;48.074;11.968;2024-01-15T14:33:10;4.47;;;3.07;;
18042;SDS011;9146;48.074;11.968;2024-01-15T14:35:37;3.80;;;2.37;;
18042;SDS011;9146;48.074;11.968;2024-01-15T14:38:05;5.40;;;2.83;;
18042;SDS011;9146;48.074;11.968;2024-01-15T14:40:32;3.33;;;2.80;;
18042;SDS011;9146;48.074;11.968;2024-01-15T14:43:00;3.00;;;2.70;;
18042;SDS011;9146;48.074;11.968;2024-01-15T14:45:28;4.90;;;3.17;;
18042;SDS011;9146;48.074;11.968;2024-01-15T14:47:55;3.00;;;2.40;;
18042;SDS011;9146;48.074;11.968;2024-01-15T14:50:23;4.53;;;3.20;;